createdAt,value
2018-11-11T00:09:44.727Z,3.19
2018-11-11T00:20:45.935Z,3.19
2018-11-11T00:31:50.178Z,3.18
2018-11-11T00:42:55.112Z,3.18
2018-11-11T00:53:58.947Z,3.18
2018-11-11T01:04:57.916Z,3.18
2018-11-11T01:16:01.566Z,3.17
2018-11-11T01:27:05.876Z,3.17
2018-11-11T01:38:03.374Z,3.17
2018-11-11T01:49:03.568Z,3.17
2018-11-11T02:00:02.500Z,3.17
2018-11-11T02:11:02.540Z,3.17
2018-11-11T02:22:02.490Z,3.16
2018-11-11T02:33:04.268Z,3.16
2018-11-11T02:44:03.897Z,3.15
2018-11-11T02:55:07.794Z,3.15
2018-11-11T03:06:07.357Z,3.15
2018-11-11T03:17:09.956Z,3.15
2018-11-11T03:28:13.621Z,3.15
2018-11-11T03:39:17.835Z,3.15
2018-11-11T03:50:16.956Z,3.14
2018-11-11T04:01:20.924Z,3.14
2018-11-11T04:12:22.890Z,3.14
2018-11-11T04:23:21.996Z,3.14
2018-11-11T04:34:22.168Z,3.13
2018-11-11T04:45:21.407Z,3.13
2018-11-11T04:56:21.535Z,3.13
2018-11-11T05:07:20.146Z,3.13
2018-11-11T05:18:20.837Z,3.13
2018-11-11T05:29:22.510Z,3.12
2018-11-11T05:40:17.992Z,3.12
2018-11-11T05:51:22.412Z,3.12
2018-11-11T06:02:25.498Z,3.12
2018-11-11T06:13:25.139Z,3.12
2018-11-11T06:24:29.588Z,3.13
2018-11-11T06:35:27.318Z,3.14
2018-11-11T06:46:30.597Z,3.14
2018-11-11T06:57:33.706Z,3.15
2018-11-11T07:08:33.303Z,3.15
2018-11-11T07:19:32.751Z,3.17
2018-11-11T07:30:27.625Z,3.18
2018-11-11T07:41:28.964Z,3.19
2018-11-11T07:52:25.274Z,3.21
2018-11-11T08:03:21.074Z,3.23
2018-11-11T08:14:23.424Z,3.25
2018-11-11T08:25:26.369Z,3.27
2018-11-11T08:36:29.605Z,3.28
2018-11-11T08:47:31.744Z,3.28
2018-11-11T08:58:34.171Z,3.29
2018-11-11T09:09:33.110Z,3.30
2018-11-11T09:20:32.791Z,3.32
2018-11-11T09:31:36.612Z,3.33
2018-11-11T09:42:39.433Z,3.35
2018-11-11T09:53:26.811Z,3.38
2018-11-11T10:04:21.615Z,3.41
2018-11-11T10:15:21.453Z,3.43
2018-11-11T10:26:24.334Z,3.44
2018-11-11T10:37:18.913Z,3.40
2018-11-11T10:48:12.139Z,3.40
2018-11-11T10:59:03.516Z,3.39
2018-11-11T11:10:04.551Z,3.39
2018-11-11T11:21:04.104Z,3.39
2018-11-11T11:32:05.403Z,3.39
2018-11-11T11:43:04.319Z,3.39
2018-11-11T11:54:03.224Z,3.39
2018-11-11T12:05:00.183Z,3.40
2018-11-11T12:15:58.000Z,3.40
2018-11-11T12:26:58.708Z,3.40
2018-11-11T12:37:58.581Z,3.40
2018-11-11T12:48:57.678Z,3.40
2018-11-11T12:59:58.041Z,3.40
2018-11-11T13:10:56.133Z,3.40
2018-11-11T13:21:59.460Z,3.40
2018-11-11T13:32:56.713Z,3.41
2018-11-11T13:43:57.660Z,3.41
2018-11-11T13:54:57.999Z,3.41
2018-11-11T14:05:55.204Z,3.40
2018-11-11T14:16:45.134Z,3.41
2018-11-11T14:27:44.790Z,3.41
2018-11-11T14:38:43.239Z,3.40
2018-11-11T14:49:42.251Z,3.40
2018-11-11T15:00:42.276Z,3.39
2018-11-11T15:11:37.245Z,3.39
2018-11-11T15:22:34.816Z,3.37
2018-11-11T15:33:35.195Z,3.37
2018-11-11T15:44:34.909Z,3.37
2018-11-11T15:55:35.866Z,3.36
2018-11-11T16:06:35.985Z,3.36
2018-11-11T16:17:38.055Z,3.35
2018-11-11T16:28:37.338Z,3.34
2018-11-11T16:39:37.204Z,3.34
2018-11-11T16:50:37.793Z,3.34
2018-11-11T17:01:39.806Z,3.33
2018-11-11T17:12:39.451Z,3.33
2018-11-11T17:23:41.781Z,3.33
2018-11-11T17:34:44.367Z,3.32
2018-11-11T17:45:48.050Z,3.32
2018-11-11T17:56:51.918Z,3.32
2018-11-11T18:07:49.773Z,3.31
2018-11-11T18:18:47.813Z,3.31
2018-11-11T18:29:47.693Z,3.30
2018-11-11T18:40:44.859Z,3.30
2018-11-11T18:51:43.947Z,3.30
2018-11-11T19:02:44.697Z,3.30
2018-11-11T19:13:45.419Z,3.29
2018-11-11T19:24:47.615Z,3.29
2018-11-11T19:35:46.529Z,3.29
2018-11-11T19:46:45.569Z,3.28
2018-11-11T19:57:45.275Z,3.28
2018-11-11T20:08:43.747Z,3.28
2018-11-11T20:19:46.729Z,3.27
2018-11-11T20:30:45.604Z,3.27
2018-11-11T20:41:42.302Z,3.26
2018-11-11T20:52:40.688Z,3.26
2018-11-11T21:03:41.795Z,3.23
2018-11-11T21:14:39.538Z,3.25
2018-11-11T21:25:39.985Z,3.25
2018-11-11T21:36:40.243Z,3.25
2018-11-11T21:47:41.918Z,3.25
2018-11-11T21:58:41.363Z,3.25
2018-11-11T22:09:43.083Z,3.25
2018-11-11T22:20:43.755Z,3.24
2018-11-11T22:31:45.536Z,3.24
2018-11-11T22:42:45.746Z,3.23
2018-11-11T22:53:45.772Z,3.23
2018-11-11T23:04:47.498Z,3.23
2018-11-11T23:15:48.004Z,3.23
2018-11-11T23:26:51.705Z,3.22
2018-11-11T23:37:49.708Z,3.22
2018-11-11T23:48:53.456Z,3.22
2018-11-11T23:59:57.220Z,3.21
